Time;durP1;ratioP1;P1;durP2;ratioP2;P2;SDS_P1;SDS_P2;PMS_P1;PMS_P2;Temp;Humidity;BMP_temperature;BMP_pressure;BME280_temperature;BME280_humidity;BME280_pressure;Samples;Min_cycle;Max_cycle;Signal;HPM_P1;HPM_P2
2022/12/12 00:00:48;;;;;;;55.17;36.63;;;4.00;99.90;;;;;;2075355;28;20022;-69
2022/12/12 00:01:52;;;;;;;60.13;40.67;;;4.00;99.90;;;;;;2075010;28;20037;-69
2022/12/12 00:02:53;;;;;;;55.05;37.53;;;4.00;99.90;;;;;;2076213;28;20069;-69
2022/12/12 00:03:54;;;;;;;54.00;37.42;;;4.00;99.90;;;;;;2073995;28;20021;-69
2022/12/12 00:04:57;;;;;;;63.03;40.08;;;4.00;99.90;;;;;;2074527;28;20044;-70
2022/12/12 00:05:58;;;;;;;52.80;36.55;;;4.00;99.90;;;;;;2074568;28;20061;-70
2022/12/12 00:06:58;;;;;;;61.40;41.38;;;4.10;99.90;;;;;;2076297;28;20033;-70
2022/12/12 00:07:59;;;;;;;61.22;41.03;;;4.00;99.90;;;;;;2075854;28;20025;-70
2022/12/12 00:09:00;;;;;;;60.25;41.42;;;4.00;99.90;;;;;;2074954;28;20072;-69
2022/12/12 00:10:01;;;;;;;60.60;42.17;;;4.00;99.90;;;;;;2077980;28;20083;-69
2022/12/12 00:11:02;;;;;;;61.00;40.88;;;4.00;99.90;;;;;;2076828;28;20144;-69
2022/12/12 00:12:03;;;;;;;64.60;41.97;;;4.00;99.90;;;;;;2073356;28;20061;-69
2022/12/12 00:13:03;;;;;;;60.63;41.42;;;4.00;99.90;;;;;;2076928;28;20053;-69
2022/12/12 00:14:04;;;;;;;59.67;41.95;;;4.00;99.90;;;;;;2074889;28;20034;-69
2022/12/12 00:15:06;;;;;;;64.50;42.67;;;4.00;99.90;;;;;;2076052;28;20036;-69
2022/12/12 00:16:07;;;;;;;64.40;41.55;;;4.00;99.90;;;;;;2077357;28;20063;-69
2022/12/12 00:17:08;;;;;;;58.00;39.00;;;4.00;99.90;;;;;;2073716;28;20436;-69
2022/12/12 00:18:08;;;;;;;55.97;39.35;;;4.00;99.90;;;;;;2073820;28;20029;-69
2022/12/12 00:19:09;;;;;;;57.78;40.97;;;4.00;99.90;;;;;;2073595;28;20038;-69
2022/12/12 00:20:09;;;;;;;61.50;41.78;;;4.00;99.90;;;;;;2075960;28;20462;-69
2022/12/12 00:21:15;;;;;;;59.28;40.20;;;4.00;99.90;;;;;;2074712;28;20033;-69
2022/12/12 00:22:15;;;;;;;62.88;40.40;;;4.00;99.90;;;;;;2075049;28;20037;-69
2022/12/12 00:23:16;;;;;;;60.65;41.60;;;4.00;99.90;;;;;;2075279;28;20037;-69
2022/12/12 00:24:16;;;;;;;61.38;40.25;;;4.00;99.90;;;;;;2075196;28;20029;-69
2022/12/12 00:25:17;;;;;;;59.25;39.08;;;4.00;99.90;;;;;;2072729;28;20091;-69
2022/12/12 00:26:26;;;;;;;55.90;38.55;;;4.00;99.90;;;;;;2074526;28;20041;-69
2022/12/12 00:27:27;;;;;;;60.10;40.55;;;4.10;99.90;;;;;;2074996;28;20041;-69
2022/12/12 00:28:28;;;;;;;54.28;37.90;;;4.00;99.90;;;;;;2066980;28;20022;-69
2022/12/12 00:29:28;;;;;;;58.53;38.92;;;4.00;99.90;;;;;;2075622;28;20109;-69
2022/12/12 00:30:29;;;;;;;56.30;39.13;;;4.00;99.90;;;;;;2073239;28;20053;-69
2022/12/12 00:31:29;;;;;;;60.90;41.80;;;4.00;99.90;;;;;;2073958;28;20401;-69
2022/12/12 00:32:30;;;;;;;56.60;39.30;;;4.00;99.90;;;;;;2075630;28;20029;-69
2022/12/12 00:33:31;;;;;;;59.67;41.20;;;4.00;99.90;;;;;;2075548;28;20363;-69
2022/12/12 00:34:31;;;;;;;61.83;42.38;;;4.00;99.90;;;;;;2075922;28;20112;-69
2022/12/12 00:35:32;;;;;;;57.53;39.58;;;4.00;99.90;;;;;;2076096;28;20029;-69
2022/12/12 00:36:32;;;;;;;57.05;38.75;;;4.10;99.90;;;;;;2076291;28;20034;-70
2022/12/12 00:37:33;;;;;;;58.05;38.63;;;4.10;99.90;;;;;;2076251;28;20499;-70
2022/12/12 00:38:34;;;;;;;56.85;40.58;;;4.10;99.90;;;;;;2075136;28;20030;-69
2022/12/12 00:39:34;;;;;;;57.70;38.42;;;4.10;99.90;;;;;;2075593;28;20022;-69
2022/12/12 00:40:35;;;;;;;53.90;36.33;;;4.10;99.90;;;;;;2074622;28;20919;-69
2022/12/12 00:41:36;;;;;;;60.13;40.90;;;4.10;99.90;;;;;;2073894;28;20140;-69
2022/12/12 00:42:36;;;;;;;62.13;41.25;;;4.10;99.90;;;;;;2074119;28;20124;-69
2022/12/12 00:43:37;;;;;;;53.95;37.40;;;4.10;99.90;;;;;;2075799;28;20029;-69
2022/12/12 00:44:38;;;;;;;56.42;38.15;;;4.10;99.90;;;;;;2074848;28;20551;-69
2022/12/12 00:45:39;;;;;;;59.95;38.88;;;4.10;99.90;;;;;;2075076;28;20466;-69
2022/12/12 00:46:39;;;;;;;61.35;39.38;;;4.10;99.90;;;;;;2075428;28;20029;-69
2022/12/12 00:47:40;;;;;;;64.45;43.75;;;4.10;99.90;;;;;;2075944;28;20025;-69
2022/12/12 00:48:40;;;;;;;60.42;41.15;;;4.10;99.90;;;;;;2077451;28;20153;-69
2022/12/12 00:49:41;;;;;;;65.35;42.45;;;4.10;99.90;;;;;;2075572;28;20099;-69
2022/12/12 00:50:41;;;;;;;65.45;43.53;;;4.10;99.90;;;;;;2073723;28;20041;-69
2022/12/12 00:51:42;;;;;;;61.53;41.13;;;4.10;99.90;;;;;;2073791;28;20378;-69
2022/12/12 00:52:43;;;;;;;62.97;42.30;;;4.10;99.90;;;;;;2075811;28;20829;-69
2022/12/12 00:53:44;;;;;;;61.38;43.42;;;4.10;99.90;;;;;;2076090;28;20092;-69
2022/12/12 00:54:45;;;;;;;62.80;42.97;;;4.10;99.90;;;;;;2075143;28;20033;-69
2022/12/12 00:55:53;;;;;;;58.85;39.50;;;4.10;99.90;;;;;;2076031;28;20032;-69
2022/12/12 00:56:53;;;;;;;52.35;36.60;;;4.10;99.90;;;;;;2075788;28;20167;-69
2022/12/12 00:57:54;;;;;;;61.08;39.97;;;4.10;99.90;;;;;;2074817;28;20025;-69
2022/12/12 00:58:54;;;;;;;60.78;42.15;;;4.10;99.90;;;;;;2076309;28;20496;-69
2022/12/12 00:59:56;;;;;;;55.08;38.55;;;4.10;99.90;;;;;;2076208;28;20028;-69
2022/12/12 01:01:05;;;;;;;60.00;41.00;;;4.10;99.90;;;;;;2082750;28;20116;-69
2022/12/12 01:02:05;;;;;;;63.05;40.92;;;4.10;99.90;;;;;;2081703;28;20108;-70
2022/12/12 01:03:06;;;;;;;61.90;41.85;;;4.10;99.90;;;;;;2074310;28;20103;-70
2022/12/12 01:04:06;;;;;;;61.20;41.58;;;4.10;99.90;;;;;;2075864;28;20765;-69
2022/12/12 01:05:07;;;;;;;56.92;39.30;;;4.10;99.90;;;;;;2075632;28;20072;-69
2022/12/12 01:06:09;;;;;;;61.53;40.75;;;4.10;99.90;;;;;;2075262;28;20133;-69
2022/12/12 01:07:09;;;;;;;64.90;43.00;;;4.10;99.90;;;;;;2076852;28;20033;-69
2022/12/12 01:08:10;;;;;;;66.28;43.58;;;4.10;99.90;;;;;;2075466;28;20030;-69
2022/12/12 01:09:10;;;;;;;61.55;41.33;;;4.10;99.90;;;;;;2074487;28;20148;-69
2022/12/12 01:10:11;;;;;;;59.90;40.08;;;4.10;99.90;;;;;;2076038;28;20661;-69
2022/12/12 01:11:13;;;;;;;67.80;44.20;;;4.10;99.90;;;;;;2076128;28;20044;-69
2022/12/12 01:12:14;;;;;;;66.40;44.92;;;4.10;99.90;;;;;;2073927;28;20667;-69
2022/12/12 01:13:14;;;;;;;65.07;44.08;;;4.10;99.90;;;;;;2075337;28;20686;-69
2022/12/12 01:14:15;;;;;;;69.68;45.08;;;4.00;99.90;;;;;;2075269;28;20061;-69
2022/12/12 01:15:15;;;;;;;67.80;45.15;;;4.00;99.90;;;;;;2074242;28;20037;-69
2022/12/12 01:16:16;;;;;;;67.00;44.80;;;4.00;99.90;;;;;;2074447;28;20096;-69
2022/12/12 01:17:17;;;;;;;70.75;45.58;;;4.00;99.90;;;;;;2075099;28;20038;-69
2022/12/12 01:18:18;;;;;;;67.18;44.15;;;4.00;99.90;;;;;;2075646;28;20022;-69
2022/12/12 01:19:18;;;;;;;64.07;41.63;;;4.00;99.90;;;;;;2075080;28;20037;-69
2022/12/12 01:20:25;;;;;;;64.20;42.95;;;4.00;99.90;;;;;;2077500;28;20034;-69
2022/12/12 01:21:25;;;;;;;69.07;43.88;;;4.00;99.90;;;;;;2078397;28;20095;-69
2022/12/12 01:22:26;;;;;;;65.40;42.92;;;4.00;99.90;;;;;;2075429;28;20078;-69
2022/12/12 01:23:27;;;;;;;69.13;45.35;;;4.00;99.90;;;;;;2075929;28;20113;-69
2022/12/12 01:24:27;;;;;;;68.68;45.42;;;4.00;99.90;;;;;;2076673;28;20642;-69
2022/12/12 01:25:28;;;;;;;68.35;43.88;;;4.00;99.90;;;;;;2077568;28;20016;-69
2022/12/12 01:26:28;;;;;;;62.38;42.15;;;4.00;99.90;;;;;;2075991;28;20636;-69
2022/12/12 01:27:29;;;;;;;66.30;44.40;;;4.00;99.90;;;;;;2077615;28;20021;-69
2022/12/12 01:28:29;;;;;;;64.88;40.42;;;4.00;99.90;;;;;;2076584;28;20030;-69
2022/12/12 01:29:32;;;;;;;59.22;41.55;;;4.00;99.90;;;;;;2077466;28;20060;-69
2022/12/12 01:30:33;;;;;;;62.65;42.45;;;4.00;99.90;;;;;;2076446;28;20513;-69
2022/12/12 01:31:33;;;;;;;65.97;43.65;;;4.00;99.90;;;;;;2077529;28;20767;-69
2022/12/12 01:32:34;;;;;;;56.63;40.03;;;4.00;99.90;;;;;;2075608;28;20935;-69
2022/12/12 01:33:35;;;;;;;63.45;41.38;;;4.00;99.90;;;;;;2077135;28;20067;-69
2022/12/12 01:34:35;;;;;;;63.85;42.20;;;4.00;99.90;;;;;;2074420;28;20473;-69
2022/12/12 01:35:36;;;;;;;59.63;39.42;;;4.00;99.90;;;;;;2075945;28;20385;-69
2022/12/12 01:36:36;;;;;;;63.88;44.35;;;4.00;99.90;;;;;;2074836;28;20037;-69
2022/12/12 01:37:39;;;;;;;54.58;37.97;;;4.00;99.90;;;;;;2076454;28;20063;-69
2022/12/12 01:38:39;;;;;;;63.55;42.47;;;4.00;99.90;;;;;;2076230;28;20053;-69
2022/12/12 01:39:40;;;;;;;60.65;38.63;;;4.00;99.90;;;;;;2077634;28;20028;-69
2022/12/12 01:40:40;;;;;;;56.40;39.55;;;4.00;99.90;;;;;;2085701;28;20029;-69
2022/12/12 01:41:42;;;;;;;57.90;39.70;;;4.00;99.90;;;;;;2084315;28;20084;-69
2022/12/12 01:42:42;;;;;;;55.20;37.92;;;4.00;99.90;;;;;;2074348;28;20137;-69
2022/12/12 01:43:43;;;;;;;59.95;38.83;;;4.00;99.90;;;;;;2076577;28;20022;-69
2022/12/12 01:44:49;;;;;;;56.78;39.55;;;4.00;99.90;;;;;;2076197;28;20018;-69
2022/12/12 01:46:00;;;;;;;55.85;36.97;;;4.00;99.90;;;;;;2077081;28;20508;-69
2022/12/12 01:47:00;;;;;;;;;;;4.00;99.90;;;;;;2077637;28;20064;-69
2022/12/12 01:48:00;;;;;;;54.97;36.85;;;4.00;99.90;;;;;;2076034;28;19913;-69
2022/12/12 01:49:10;;;;;;;61.80;42.97;;;4.00;99.90;;;;;;2076104;28;20481;-69
2022/12/12 01:50:11;;;;;;;54.50;39.45;;;4.00;99.90;;;;;;2076502;28;20057;-69
2022/12/12 01:51:17;;;;;;;60.33;41.00;;;4.00;99.90;;;;;;2077228;28;20040;-69
2022/12/12 01:52:23;;;;;;;60.17;41.10;;;4.00;99.90;;;;;;2074914;28;20124;-69
2022/12/12 01:53:25;;;;;;;57.35;38.70;;;4.00;99.90;;;;;;2077699;28;20035;-69
2022/12/12 01:54:31;;;;;;;57.40;39.15;;;4.00;99.90;;;;;;2077143;28;20040;-69
2022/12/12 01:55:32;;;;;;;63.78;41.88;;;4.10;99.90;;;;;;2077198;28;20164;-69
2022/12/12 01:56:33;;;;;;;55.83;38.30;;;4.10;99.90;;;;;;2077213;28;20041;-69
2022/12/12 01:57:43;;;;;;;61.75;38.92;;;4.00;99.90;;;;;;2076396;28;20473;-69
2022/12/12 01:58:46;;;;;;;;;;;4.00;99.90;;;;;;2074195;28;20041;-69
2022/12/12 01:59:46;;;;;;;57.75;39.28;;;3.90;99.90;;;;;;2078136;28;19909;-69
2022/12/12 02:00:47;;;;;;;59.53;40.28;;;4.00;99.90;;;;;;2076468;28;20040;-70
2022/12/12 02:01:49;;;;;;;59.50;40.42;;;4.00;99.90;;;;;;2076673;28;20105;-71
2022/12/12 02:02:51;;;;;;;57.83;38.42;;;4.00;99.90;;;;;;2076816;28;20029;-71
2022/12/12 02:03:52;;;;;;;54.50;37.33;;;4.00;99.90;;;;;;2076886;28;20022;-71
2022/12/12 02:04:53;;;;;;;56.63;38.78;;;4.00;99.90;;;;;;2076378;28;20033;-71
2022/12/12 02:06:01;;;;;;;60.80;41.05;;;4.00;99.90;;;;;;2075247;28;20053;-71
2022/12/12 02:07:02;;;;;;;59.10;40.55;;;4.00;99.90;;;;;;2083246;28;20030;-71
2022/12/12 02:08:04;;;;;;;53.50;37.03;;;4.00;99.90;;;;;;2084848;28;20021;-71
2022/12/12 02:09:09;;;;;;;56.90;38.47;;;4.00;99.90;;;;;;2077801;28;20545;-71
2022/12/12 02:10:09;;;;;;;56.25;38.03;;;4.10;99.90;;;;;;2077556;28;20036;-71
2022/12/12 02:11:10;;;;;;;56.70;38.63;;;4.10;99.90;;;;;;2076370;28;20036;-71
2022/12/12 02:12:12;;;;;;;57.10;39.80;;;4.10;99.90;;;;;;2076486;28;20018;-71
2022/12/12 02:13:19;;;;;;;60.20;39.15;;;4.10;99.90;;;;;;2083625;28;20100;-71
2022/12/12 02:14:42;;;;;;;56.25;38.55;;;4.10;99.90;;;;;;2084170;28;20135;-71
2022/12/12 02:15:48;;;;;;;60.17;40.38;;;4.10;99.90;;;;;;2077003;28;20434;-71
2022/12/12 02:17:01;;;;;;;57.70;39.50;;;4.10;99.90;;;;;;2075733;28;20099;-71
2022/12/12 02:18:21;;;;;;;61.03;40.88;;;4.10;99.90;;;;;;2076256;28;20434;-71
2022/12/12 02:19:33;;;;;;;61.80;41.30;;;4.10;99.90;;;;;;2077236;28;20033;-71
2022/12/12 02:20:44;;;;;;;55.78;37.25;;;4.00;99.90;;;;;;2075577;28;20113;-71
2022/12/12 02:22:03;;;;;;;60.92;39.30;;;4.00;99.90;;;;;;2077012;28;20029;-71
2022/12/12 02:23:42;;;;;;;54.92;37.83;;;4.00;99.90;;;;;;2076575;28;20092;-71
2022/12/12 02:24:51;;;;;;;59.13;39.33;;;4.00;99.90;;;;;;2074367;28;20026;-71
2022/12/12 02:26:07;;;;;;;54.03;36.78;;;4.10;99.90;;;;;;2076114;28;20079;-71
2022/12/12 02:27:32;;;;;;;55.20;39.05;;;4.00;99.90;;;;;;2075066;28;20034;-71
2022/12/12 02:29:00;;;;;;;58.47;39.67;;;4.00;99.90;;;;;;2076204;28;20037;-71
2022/12/12 02:30:46;;;;;;;57.17;37.58;;;4.00;99.90;;;;;;2073710;28;20029;-71
2022/12/12 02:32:02;;;;;;;52.38;35.00;;;4.00;99.90;;;;;;2076396;28;20061;-71
2022/12/12 02:33:05;;;;;;;61.08;41.00;;;4.00;99.90;;;;;;2075356;28;20572;-70
2022/12/12 02:34:44;;;;;;;63.40;41.63;;;4.00;99.90;;;;;;2073256;28;20034;-70
2022/12/12 02:35:59;;;;;;;63.90;42.58;;;4.00;99.90;;;;;;2074767;28;20041;-70
2022/12/12 02:37:06;;;;;;;52.50;36.92;;;3.90;99.90;;;;;;2077066;28;20075;-70
2022/12/12 02:38:31;;;;;;;58.20;39.55;;;3.90;99.90;;;;;;2075539;28;20057;-70
2022/12/12 02:39:54;;;;;;;60.67;39.65;;;4.00;99.90;;;;;;2076001;28;20038;-70
2022/12/12 02:41:37;;;;;;;64.28;42.22;;;3.90;99.90;;;;;;2073714;28;20068;-70
2022/12/12 02:42:56;;;;;;;68.00;44.15;;;3.90;99.90;;;;;;2074955;28;20393;-72
2022/12/12 02:44:18;;;;;;;68.03;42.28;;;3.90;99.90;;;;;;2076008;28;20038;-70
2022/12/12 02:45:28;;;;;;;64.30;42.10;;;3.90;99.90;;;;;;2075989;28;20025;-70
2022/12/12 02:46:36;;;;;;;58.40;37.92;;;3.90;99.90;;;;;;2075510;28;20128;-70
2022/12/12 02:47:46;;;;;;;54.78;37.83;;;3.90;99.90;;;;;;2077292;28;20060;-70
2022/12/12 02:48:59;;;;;;;60.72;40.33;;;3.90;99.90;;;;;;2075986;28;20063;-70
2022/12/12 02:50:04;;;;;;;58.83;38.65;;;3.90;99.90;;;;;;2076439;28;20032;-70
2022/12/12 02:51:09;;;;;;;58.33;38.20;;;3.90;99.90;;;;;;2077340;28;20026;-70
2022/12/12 02:52:11;;;;;;;54.08;37.17;;;3.90;99.90;;;;;;2073450;28;20022;-70
2022/12/12 02:53:11;;;;;;;49.40;35.45;;;3.90;99.90;;;;;;2075553;28;20040;-70
2022/12/12 02:54:15;;;;;;;60.55;39.50;;;3.90;99.90;;;;;;2077988;28;20064;-70
2022/12/12 02:55:16;;;;;;;61.08;42.03;;;4.00;99.90;;;;;;2076131;28;20026;-70
2022/12/12 02:56:39;;;;;;;62.15;39.22;;;3.90;99.90;;;;;;2075068;28;20029;-70
2022/12/12 02:57:40;;;;;;;63.17;42.20;;;4.00;99.90;;;;;;2076555;28;20032;-70
2022/12/12 02:58:41;;;;;;;58.13;40.17;;;3.90;99.90;;;;;;2075687;28;20422;-70
2022/12/12 02:59:47;;;;;;;63.95;42.65;;;3.90;99.90;;;;;;2074688;28;20080;-70
2022/12/12 03:01:10;;;;;;;54.47;37.42;;;4.00;99.90;;;;;;2077233;28;20065;-70
2022/12/12 03:02:32;;;;;;;62.22;41.97;;;4.00;99.90;;;;;;2075917;28;20064;-70
2022/12/12 03:08:25;;;;;;;54.83;37.30;;;4.00;99.90;;;;;;2075340;28;20061;-70
2022/12/12 03:09:35;;;;;;;;;;;3.90;99.90;;;;;;2075974;28;20029;-70
2022/12/12 03:10:39;;;;;;;52.08;36.08;;;3.80;99.90;;;;;;2077642;28;19905;-70
2022/12/12 03:12:06;;;;;;;53.15;37.25;;;3.90;99.90;;;;;;2076537;28;20079;-70
2022/12/12 03:13:20;;;;;;;57.45;40.28;;;3.90;99.90;;;;;;2074313;28;20040;-70
2022/12/12 03:14:53;;;;;;;68.55;43.03;;;3.90;99.90;;;;;;2075454;28;20037;-70
2022/12/12 03:16:08;;;;;;;55.55;37.53;;;3.90;99.90;;;;;;2075887;28;20492;-70
2022/12/12 03:17:28;;;;;;;57.75;38.45;;;3.90;99.90;;;;;;2084784;28;20785;-70
2022/12/12 03:18:41;;;;;;;63.17;40.65;;;3.90;99.90;;;;;;2082213;28;20124;-70
2022/12/12 03:19:54;;;;;;;58.17;39.72;;;3.90;99.90;;;;;;2076030;28;20173;-70
2022/12/12 03:21:06;;;;;;;54.67;37.30;;;3.90;99.90;;;;;;2075564;28;20026;-70
2022/12/12 03:22:20;;;;;;;64.78;42.72;;;3.90;99.90;;;;;;2074412;28;20033;-70
2022/12/12 03:23:29;;;;;;;62.28;41.60;;;3.90;99.90;;;;;;2076998;28;20025;-70
2022/12/12 03:24:38;;;;;;;66.88;41.78;;;3.90;99.90;;;;;;2075611;28;20482;-72
2022/12/12 03:26:21;;;;;;;66.53;44.65;;;3.90;99.90;;;;;;2074402;28;20127;-70
2022/12/12 03:27:45;;;;;;;62.97;42.22;;;3.90;99.90;;;;;;2075037;28;20489;-70
2022/12/12 03:29:06;;;;;;;66.97;42.95;;;3.90;99.90;;;;;;2076801;28;20041;-70
2022/12/12 03:30:11;;;;;;;64.35;42.97;;;3.90;99.90;;;;;;2075734;28;20116;-70
2022/12/12 03:31:13;;;;;;;62.33;40.65;;;3.80;99.90;;;;;;2066161;28;20716;-70
2022/12/12 03:32:21;;;;;;;62.67;41.40;;;3.90;99.90;;;;;;2067744;28;20034;-72
2022/12/12 03:33:45;;;;;;;58.90;39.88;;;3.80;99.90;;;;;;2076219;28;20025;-72
2022/12/12 03:34:50;;;;;;;62.05;41.35;;;3.90;99.90;;;;;;2074391;28;20033;-72
2022/12/12 03:36:01;;;;;;;60.72;39.97;;;3.80;99.90;;;;;;2075810;28;20029;-72
2022/12/12 03:37:10;;;;;;;64.22;42.85;;;3.90;99.90;;;;;;2076181;28;20037;-72
2022/12/12 03:38:20;;;;;;;60.58;40.80;;;3.80;99.90;;;;;;2073787;28;20053;-71
2022/12/12 03:39:39;;;;;;;65.93;43.08;;;3.80;99.90;;;;;;2076261;28;20116;-72
2022/12/12 03:40:48;;;;;;;62.03;42.67;;;3.80;99.90;;;;;;2075868;28;20505;-72
2022/12/12 03:41:59;;;;;;;61.78;41.38;;;3.80;99.90;;;;;;2075144;28;20087;-72
2022/12/12 03:43:12;;;;;;;59.63;38.72;;;3.80;99.90;;;;;;2076313;28;20070;-70
2022/12/12 03:44:19;;;;;;;57.85;38.92;;;3.80;99.90;;;;;;2075259;28;20033;-72
2022/12/12 03:45:30;;;;;;;57.13;38.97;;;3.90;99.90;;;;;;2074842;28;20591;-72
2022/12/12 03:46:59;;;;;;;59.38;37.80;;;3.90;99.90;;;;;;2074379;28;20030;-72
2022/12/12 03:48:07;;;;;;;57.13;39.03;;;3.90;99.90;;;;;;2074945;28;20037;-72
2022/12/12 03:49:19;;;;;;;60.90;40.33;;;3.90;99.90;;;;;;2076917;28;20044;-72
2022/12/12 03:50:21;;;;;;;60.25;40.08;;;3.90;99.90;;;;;;2075901;28;20100;-72
2022/12/12 03:51:38;;;;;;;57.28;36.60;;;3.90;99.90;;;;;;2073605;28;20030;-72
2022/12/12 03:52:47;;;;;;;60.88;39.75;;;3.90;99.90;;;;;;2074415;28;20425;-72
2022/12/12 03:53:53;;;;;;;52.38;37.13;;;3.90;99.90;;;;;;2075927;28;20040;-72
2022/12/12 03:55:00;;;;;;;53.90;36.00;;;3.90;99.90;;;;;;2075750;28;20026;-72
2022/12/12 03:56:09;;;;;;;54.78;35.80;;;3.90;99.90;;;;;;2073729;28;20063;-72
2022/12/12 03:57:17;;;;;;;55.55;36.65;;;3.90;99.90;;;;;;2076745;28;21684;-72
2022/12/12 03:58:25;;;;;;;53.90;37.20;;;3.90;99.90;;;;;;2075625;28;20112;-72
2022/12/12 03:59:49;;;;;;;55.50;38.25;;;3.90;99.90;;;;;;2074147;28;20033;-72
2022/12/12 04:00:53;;;;;;;64.32;40.58;;;3.90;99.90;;;;;;2069649;28;20626;-72
2022/12/12 04:01:59;;;;;;;62.78;40.67;;;4.00;99.90;;;;;;2076122;28;20030;-72
2022/12/12 04:03:26;;;;;;;63.75;41.13;;;4.00;99.90;;;;;;2073457;28;20735;-72
2022/12/12 04:04:30;;;;;;;63.53;41.17;;;3.90;99.90;;;;;;2066310;28;20088;-73
2022/12/12 04:06:25;;;;;;;62.70;40.47;;;3.90;99.90;;;;;;2074860;28;20108;-73
2022/12/12 04:07:10;;;;;;;67.70;44.00;;;3.90;99.90;;;;;;2077267;28;20029;-73
2022/12/12 04:08:15;;;;;;;62.40;40.53;;;3.90;99.90;;;;;;2074070;28;20028;-72
2022/12/12 04:12:57;;;;;;;59.78;39.65;;;3.90;99.90;;;;;;2076052;28;20021;-72
2022/12/12 04:14:10;;;;;;;56.38;38.25;;;3.90;99.90;;;;;;2075224;28;20535;-72
2022/12/12 04:15:47;;;;;;;57.50;38.85;;;3.90;99.90;;;;;;2075797;28;20034;-72
2022/12/12 04:16:51;;;;;;;57.40;37.30;;;3.90;99.90;;;;;;2075754;28;20073;-72
2022/12/12 04:18:19;;;;;;;54.15;36.42;;;3.90;99.90;;;;;;2076098;28;20029;-72
2022/12/12 04:23:46;;;;;;;62.08;40.10;;;3.90;99.90;;;;;;2072701;28;20030;-72
2022/12/12 04:24:53;;;;;;;64.43;42.65;;;3.90;99.90;;;;;;2073559;28;20037;-72
2022/12/12 04:27:41;;;;;;;62.75;40.22;;;3.90;99.90;;;;;;2075315;28;20041;-72
2022/12/12 04:29:06;;;;;;;59.40;39.42;;;3.90;99.90;;;;;;2076407;28;20378;-72
2022/12/12 04:30:11;;;;;;;66.25;41.95;;;3.90;99.90;;;;;;2074398;28;20057;-71
2022/12/12 04:31:14;;;;;;;61.67;39.83;;;3.90;99.90;;;;;;2072353;28;20029;-73
2022/12/12 04:32:26;;;;;;;63.45;42.10;;;3.90;99.90;;;;;;2072931;28;20067;-72
2022/12/12 04:33:35;;;;;;;64.90;41.67;;;3.90;99.90;;;;;;2076082;28;20029;-72
2022/12/12 04:34:53;;;;;;;61.97;41.30;;;3.80;99.90;;;;;;2074820;28;20057;-71
2022/12/12 04:35:57;;;;;;;65.30;42.10;;;3.80;99.90;;;;;;2076669;28;20053;-72
2022/12/12 04:36:58;;;;;;;64.50;41.63;;;3.80;99.90;;;;;;2076888;28;20055;-72
2022/12/12 04:38:12;;;;;;;61.10;42.28;;;3.80;99.90;;;;;;2077512;28;20022;-72
2022/12/12 04:39:15;;;;;;;61.35;42.22;;;3.80;99.90;;;;;;2075806;28;20040;-72
2022/12/12 04:40:28;;;;;;;60.75;40.47;;;3.80;99.90;;;;;;2080090;28;20060;-72
2022/12/12 04:41:32;;;;;;;64.68;41.50;;;3.80;99.90;;;;;;2080866;28;20500;-72
2022/12/12 04:42:45;;;;;;;63.38;41.35;;;3.80;99.90;;;;;;2072950;28;20044;-72
2022/12/12 04:43:49;;;;;;;63.15;41.55;;;3.80;99.90;;;;;;2075495;28;20056;-72
2022/12/12 04:44:52;;;;;;;60.33;38.85;;;3.80;99.90;;;;;;2075529;28;20616;-72
2022/12/12 04:46:00;;;;;;;63.33;40.50;;;3.80;99.90;;;;;;2074409;28;20029;-72
2022/12/12 04:47:04;;;;;;;61.15;40.65;;;3.80;99.90;;;;;;2074873;28;20025;-71
2022/12/12 04:48:08;;;;;;;55.30;37.33;;;3.80;99.90;;;;;;2076056;28;20045;-71
2022/12/12 04:49:18;;;;;;;58.33;39.58;;;3.80;99.90;;;;;;2074739;28;20138;-72
2022/12/12 04:50:22;;;;;;;61.00;40.88;;;3.80;99.90;;;;;;2074615;28;20025;-72
2022/12/12 04:51:28;;;;;;;56.75;38.17;;;3.80;99.90;;;;;;2076028;28;20048;-72
2022/12/12 04:52:32;;;;;;;53.88;35.97;;;3.80;99.90;;;;;;2076077;28;20414;-72
2022/12/12 04:53:37;;;;;;;54.70;38.50;;;3.80;99.90;;;;;;2076631;28;20033;-72
2022/12/12 04:54:53;;;;;;;55.72;37.25;;;3.80;99.90;;;;;;2077246;28;20124;-72
2022/12/12 04:55:58;;;;;;;52.78;36.35;;;3.90;99.90;;;;;;2077316;28;20022;-72
2022/12/12 04:57:02;;;;;;;53.20;35.25;;;3.90;99.90;;;;;;2077716;28;20029;-72
2022/12/12 04:58:04;;;;;;;57.97;36.78;;;3.90;99.90;;;;;;2085152;28;20436;-72
2022/12/12 04:59:06;;;;;;;57.58;37.58;;;3.90;99.90;;;;;;2083908;28;20068;-72
2022/12/12 05:00:08;;;;;;;52.15;36.05;;;3.90;99.90;;;;;;2077131;28;20036;-72
2022/12/12 05:01:18;;;;;;;55.20;37.42;;;3.90;99.90;;;;;;2084456;28;20512;-72
2022/12/12 05:02:36;;;;;;;52.72;36.38;;;3.90;99.90;;;;;;2083923;28;20044;-72
2022/12/12 05:03:52;;;;;;;56.83;38.22;;;3.90;99.90;;;;;;2077290;28;20120;-72
2022/12/12 05:05:05;;;;;;;52.83;36.58;;;3.80;99.90;;;;;;2077343;28;20071;-72
2022/12/12 05:06:11;;;;;;;54.72;36.45;;;3.90;99.90;;;;;;2076188;28;20033;-72
2022/12/12 05:07:19;;;;;;;54.85;36.00;;;3.80;99.90;;;;;;2077823;28;20571;-72
2022/12/12 05:08:32;;;;;;;56.88;38.65;;;3.80;99.90;;;;;;2077564;28;20025;-72
2022/12/12 05:09:33;;;;;;;55.90;38.58;;;3.80;99.90;;;;;;2076201;28;20025;-72
2022/12/12 05:10:42;;;;;;;54.65;37.67;;;3.80;99.90;;;;;;2077760;28;20025;-72
2022/12/12 05:11:42;;;;;;;48.67;34.90;;;3.80;99.90;;;;;;2077839;28;20116;-72
2022/12/12 05:12:49;;;;;;;56.80;38.60;;;3.80;99.90;;;;;;2073879;28;20036;-72
2022/12/12 05:13:49;;;;;;;51.15;35.15;;;3.80;99.90;;;;;;2075771;28;20037;-72
2022/12/12 05:14:50;;;;;;;57.15;37.13;;;3.70;99.90;;;;;;2076877;28;20034;-72
2022/12/12 05:15:53;;;;;;;50.67;35.92;;;3.70;99.90;;;;;;2075426;28;20045;-72
2022/12/12 05:16:59;;;;;;;57.40;37.35;;;3.70;99.90;;;;;;2077690;28;20083;-72
2022/12/12 05:18:07;;;;;;;50.92;36.22;;;3.70;99.90;;;;;;2077123;28;20400;-72
2022/12/12 05:19:07;;;;;;;56.17;37.63;;;3.70;99.90;;;;;;2074853;28;20037;-72
2022/12/12 05:20:09;;;;;;;54.78;36.25;;;3.70;99.90;;;;;;2078060;28;20110;-72
2022/12/12 05:21:10;;;;;;;56.35;38.08;;;3.70;99.90;;;;;;2077994;28;20489;-72
2022/12/12 05:22:10;;;;;;;56.20;35.88;;;3.70;99.90;;;;;;2074536;28;20429;-71
2022/12/12 05:23:11;;;;;;;53.00;34.83;;;3.70;99.90;;;;;;2074519;28;20378;-71
2022/12/12 05:24:11;;;;;;;54.95;36.15;;;3.70;99.90;;;;;;2077754;28;20044;-71
2022/12/12 05:25:12;;;;;;;50.38;35.97;;;3.60;99.90;;;;;;2075341;28;20361;-71
2022/12/12 05:26:21;;;;;;;50.00;33.42;;;3.60;99.90;;;;;;2076011;28;20108;-72
2022/12/12 05:27:22;;;;;;;49.10;34.30;;;3.60;99.90;;;;;;2073306;28;20029;-72
2022/12/12 05:28:22;;;;;;;47.88;33.72;;;3.60;99.90;;;;;;2073992;28;20025;-72
2022/12/12 05:29:23;;;;;;;48.17;33.33;;;3.60;99.90;;;;;;2073481;28;20489;-71
2022/12/12 05:30:23;;;;;;;49.10;33.95;;;3.60;99.90;;;;;;2074829;28;20655;-71
2022/12/12 05:31:24;;;;;;;54.03;36.88;;;3.60;99.90;;;;;;2073222;28;20029;-72
2022/12/12 05:32:25;;;;;;;52.72;36.08;;;3.60;99.90;;;;;;2074565;28;20045;-72
2022/12/12 05:33:25;;;;;;;52.65;35.22;;;3.60;99.90;;;;;;2074227;28;20042;-72
2022/12/12 05:34:26;;;;;;;51.80;34.38;;;3.50;99.90;;;;;;2076864;28;20025;-72
2022/12/12 05:35:27;;;;;;;51.20;33.67;;;3.50;99.90;;;;;;2076175;28;20079;-71
2022/12/12 05:36:27;;;;;;;48.72;34.72;;;3.50;99.90;;;;;;2076924;28;20061;-71
2022/12/12 05:37:28;;;;;;;50.38;33.80;;;3.50;99.90;;;;;;2077684;28;20044;-72
2022/12/12 05:38:28;;;;;;;51.45;33.58;;;3.50;99.90;;;;;;2078572;28;20472;-71
2022/12/12 05:39:29;;;;;;;49.42;34.92;;;3.50;99.90;;;;;;2078170;28;20040;-72
2022/12/12 05:40:29;;;;;;;49.92;34.25;;;3.50;99.90;;;;;;2076054;28;20037;-72
2022/12/12 05:41:30;;;;;;;46.83;32.70;;;3.50;99.90;;;;;;2077074;28;20812;-71
2022/12/12 05:42:31;;;;;;;50.72;34.78;;;3.50;99.90;;;;;;2075379;28;20382;-72
2022/12/12 05:43:31;;;;;;;52.92;36.05;;;3.50;99.90;;;;;;2077490;28;20061;-71
2022/12/12 05:44:32;;;;;;;47.65;32.47;;;3.40;99.90;;;;;;2075318;28;20029;-72
2022/12/12 05:45:32;;;;;;;51.28;36.45;;;3.40;99.90;;;;;;2076425;28;20578;-72
2022/12/12 05:46:33;;;;;;;52.85;35.90;;;3.40;99.90;;;;;;2083106;28;20096;-71
2022/12/12 05:47:34;;;;;;;53.20;36.20;;;3.40;99.90;;;;;;2078006;28;20021;-72
2022/12/12 05:48:35;;;;;;;52.35;34.00;;;3.40;99.90;;;;;;2078191;28;20136;-72
2022/12/12 05:49:35;;;;;;;49.13;33.78;;;3.40;99.90;;;;;;2077332;28;20509;-72
2022/12/12 05:50:36;;;;;;;50.85;34.97;;;3.40;99.90;;;;;;2076679;28;20017;-72
2022/12/12 05:51:36;;;;;;;45.17;33.92;;;3.30;99.90;;;;;;2076813;28;20112;-72
2022/12/12 05:52:37;;;;;;;53.05;33.25;;;3.40;99.90;;;;;;2077461;28;20046;-72
2022/12/12 05:53:37;;;;;;;45.65;33.80;;;3.30;99.90;;;;;;2075848;28;20022;-71
2022/12/12 05:54:39;;;;;;;49.90;34.17;;;3.30;99.90;;;;;;2076073;28;20497;-72
2022/12/12 05:55:40;;;;;;;45.58;33.03;;;3.30;99.90;;;;;;2076206;28;20569;-72